sensor_id;sensor_type;location;lat;lon;timestamp;P1;durP1;ratioP1;P2;durP2;ratioP2
51800;SDS011;37855;53.204;6.568;2022-10-13T00:01:31;22.73;;;12.13;;
51800;SDS011;37855;53.204;6.568;2022-10-13T00:03:57;25.73;;;12.73;;
51800;SDS011;37855;53.204;6.568;2022-10-13T00:06:26;27.33;;;12.77;;
51800;SDS011;37855;53.204;6.568;2022-10-13T00:08:52;24.05;;;12.00;;
51800;SDS011;37855;53.204;6.568;2022-10-13T00:11:22;24.05;;;12.18;;
51800;SDS011;37855;53.204;6.568;2022-10-13T00:13:57;21.83;;;11.90;;
51800;SDS011;37855;53.204;6.568;2022-10-13T00:16:26;23.45;;;12.13;;
51800;SDS011;37855;53.204;6.568;2022-10-13T00:18:52;24.48;;;12.98;;
51800;SDS011;37855;53.204;6.568;2022-10-13T00:21:18;25.23;;;12.70;;
51800;SDS011;37855;53.204;6.568;2022-10-13T00:23:46;22.55;;;12.10;;
51800;SDS011;37855;53.204;6.568;2022-10-13T00:26:12;29.48;;;13.35;;
51800;SDS011;37855;53.204;6.568;2022-10-13T00:28:40;26.77;;;12.80;;
51800;SDS011;37855;53.204;6.568;2022-10-13T00:31:23;26.77;;;13.07;;
51800;SDS011;37855;53.204;6.568;2022-10-13T00:33:50;24.38;;;12.38;;
51800;SDS011;37855;53.204;6.568;2022-10-13T00:36:20;28.65;;;13.07;;
51800;SDS011;37855;53.204;6.568;2022-10-13T00:38:50;21.98;;;12.02;;
51800;SDS011;37855;53.204;6.568;2022-10-13T00:41:18;27.10;;;12.85;;
51800;SDS011;37855;53.204;6.568;2022-10-13T00:43:46;24.42;;;12.63;;
51800;SDS011;37855;53.204;6.568;2022-10-13T00:46:22;24.80;;;12.77;;
51800;SDS011;37855;53.204;6.568;2022-10-13T00:48:50;21.98;;;11.60;;
51800;SDS011;37855;53.204;6.568;2022-10-13T00:51:17;28.10;;;13.52;;
51800;SDS011;37855;53.204;6.568;2022-10-13T00:53:50;26.95;;;13.57;;
51800;SDS011;37855;53.204;6.568;2022-10-13T00:56:17;27.15;;;13.23;;
51800;SDS011;37855;53.204;6.568;2022-10-13T00:58:45;27.48;;;13.60;;
51800;SDS011;37855;53.204;6.568;2022-10-13T01:01:12;25.10;;;13.23;;
51800;SDS011;37855;53.204;6.568;2022-10-13T01:03:41;27.33;;;14.20;;
51800;SDS011;37855;53.204;6.568;2022-10-13T01:06:07;24.67;;;13.20;;
51800;SDS011;37855;53.204;6.568;2022-10-13T01:08:33;25.48;;;14.15;;
51800;SDS011;37855;53.204;6.568;2022-10-13T01:11:14;24.38;;;13.63;;
51800;SDS011;37855;53.204;6.568;2022-10-13T01:30:25;24.70;;;14.23;;
51800;SDS011;37855;53.204;6.568;2022-10-13T01:43:28;27.25;;;14.23;;
51800;SDS011;37855;53.204;6.568;2022-10-13T01:48:29;28.40;;;13.57;;
51800;SDS011;37855;53.204;6.568;2022-10-13T01:50:56;28.05;;;14.00;;
51800;SDS011;37855;53.204;6.568;2022-10-13T01:53:24;29.25;;;14.57;;
51800;SDS011;37855;53.204;6.568;2022-10-13T01:55:51;26.45;;;14.45;;
51800;SDS011;37855;53.204;6.568;2022-10-13T01:58:19;26.30;;;13.45;;
51800;SDS011;37855;53.204;6.568;2022-10-13T02:00:49;23.88;;;14.13;;
51800;SDS011;37855;53.204;6.568;2022-10-13T02:06:12;23.35;;;13.35;;
51800;SDS011;37855;53.204;6.568;2022-10-13T02:08:54;28.25;;;14.02;;
51800;SDS011;37855;53.204;6.568;2022-10-13T02:11:30;28.35;;;14.25;;
51800;SDS011;37855;53.204;6.568;2022-10-13T02:14:05;25.45;;;14.30;;
51800;SDS011;37855;53.204;6.568;2022-10-13T02:16:37;25.50;;;13.20;;
51800;SDS011;37855;53.204;6.568;2022-10-13T02:19:06;26.67;;;14.48;;
51800;SDS011;37855;53.204;6.568;2022-10-13T02:21:35;27.55;;;13.95;;
51800;SDS011;37855;53.204;6.568;2022-10-13T02:24:04;25.02;;;13.90;;
51800;SDS011;37855;53.204;6.568;2022-10-13T02:26:31;25.58;;;14.20;;
51800;SDS011;37855;53.204;6.568;2022-10-13T02:28:58;26.48;;;14.73;;
51800;SDS011;37855;53.204;6.568;2022-10-13T02:31:26;25.60;;;14.73;;
51800;SDS011;37855;53.204;6.568;2022-10-13T02:33:52;28.73;;;14.48;;
51800;SDS011;37855;53.204;6.568;2022-10-13T02:36:18;27.67;;;14.63;;
51800;SDS011;37855;53.204;6.568;2022-10-13T02:38:43;28.67;;;15.07;;
51800;SDS011;37855;53.204;6.568;2022-10-13T02:41:09;32.58;;;15.40;;
51800;SDS011;37855;53.204;6.568;2022-10-13T02:43:34;30.08;;;15.05;;
51800;SDS011;37855;53.204;6.568;2022-10-13T02:46:02;27.00;;;15.07;;
51800;SDS011;37855;53.204;6.568;2022-10-13T02:48:28;29.58;;;15.45;;
51800;SDS011;37855;53.204;6.568;2022-10-13T02:50:53;26.92;;;14.85;;
51800;SDS011;37855;53.204;6.568;2022-10-13T02:53:19;26.73;;;15.02;;
51800;SDS011;37855;53.204;6.568;2022-10-13T02:55:45;30.02;;;15.38;;
51800;SDS011;37855;53.204;6.568;2022-10-13T02:58:12;27.52;;;15.25;;
51800;SDS011;37855;53.204;6.568;2022-10-13T03:00:38;25.23;;;14.93;;
51800;SDS011;37855;53.204;6.568;2022-10-13T03:03:03;26.95;;;15.77;;
51800;SDS011;37855;53.204;6.568;2022-10-13T03:05:29;30.48;;;14.95;;
51800;SDS011;37855;53.204;6.568;2022-10-13T03:07:55;29.98;;;15.07;;
51800;SDS011;37855;53.204;6.568;2022-10-13T03:10:21;28.35;;;15.35;;
51800;SDS011;37855;53.204;6.568;2022-10-13T03:12:47;27.88;;;15.20;;
51800;SDS011;37855;53.204;6.568;2022-10-13T03:15:12;29.15;;;15.65;;
51800;SDS011;37855;53.204;6.568;2022-10-13T03:17:38;27.85;;;15.20;;
51800;SDS011;37855;53.204;6.568;2022-10-13T03:20:04;32.25;;;16.35;;
51800;SDS011;37855;53.204;6.568;2022-10-13T03:22:31;33.13;;;16.60;;
51800;SDS011;37855;53.204;6.568;2022-10-13T03:24:57;27.70;;;16.08;;
51800;SDS011;37855;53.204;6.568;2022-10-13T03:27:23;27.02;;;15.80;;
51800;SDS011;37855;53.204;6.568;2022-10-13T03:29:48;28.95;;;17.00;;
51800;SDS011;37855;53.204;6.568;2022-10-13T03:32:14;26.30;;;15.95;;
51800;SDS011;37855;53.204;6.568;2022-10-13T03:34:40;26.83;;;16.20;;
51800;SDS011;37855;53.204;6.568;2022-10-13T03:37:06;29.08;;;16.90;;
51800;SDS011;37855;53.204;6.568;2022-10-13T03:39:32;28.60;;;16.42;;
51800;SDS011;37855;53.204;6.568;2022-10-13T03:41:58;27.90;;;16.17;;
51800;SDS011;37855;53.204;6.568;2022-10-13T03:44:23;29.00;;;17.38;;
51800;SDS011;37855;53.204;6.568;2022-10-13T03:46:49;29.17;;;16.98;;
51800;SDS011;37855;53.204;6.568;2022-10-13T03:49:15;26.30;;;16.40;;
51800;SDS011;37855;53.204;6.568;2022-10-13T03:51:42;33.78;;;17.65;;
51800;SDS011;37855;53.204;6.568;2022-10-13T03:54:10;31.00;;;18.77;;
51800;SDS011;37855;53.204;6.568;2022-10-13T03:56:36;29.58;;;17.27;;
51800;SDS011;37855;53.204;6.568;2022-10-13T03:59:03;28.33;;;17.25;;
51800;SDS011;37855;53.204;6.568;2022-10-13T04:01:30;34.65;;;18.90;;
51800;SDS011;37855;53.204;6.568;2022-10-13T04:04:01;27.27;;;17.70;;
51800;SDS011;37855;53.204;6.568;2022-10-13T04:06:27;30.17;;;18.00;;
51800;SDS011;37855;53.204;6.568;2022-10-13T04:08:54;34.30;;;18.77;;
51800;SDS011;37855;53.204;6.568;2022-10-13T04:11:21;31.17;;;18.60;;
51800;SDS011;37855;53.204;6.568;2022-10-13T04:13:48;30.20;;;18.00;;
51800;SDS011;37855;53.204;6.568;2022-10-13T04:16:15;30.23;;;18.95;;
51800;SDS011;37855;53.204;6.568;2022-10-13T04:18:49;33.80;;;20.17;;
51800;SDS011;37855;53.204;6.568;2022-10-13T04:21:17;33.50;;;19.75;;
51800;SDS011;37855;53.204;6.568;2022-10-13T04:23:45;31.52;;;19.20;;
51800;SDS011;37855;53.204;6.568;2022-10-13T04:26:15;32.13;;;20.25;;
51800;SDS011;37855;53.204;6.568;2022-10-13T04:28:42;34.72;;;19.45;;
51800;SDS011;37855;53.204;6.568;2022-10-13T04:31:08;31.75;;;19.27;;
51800;SDS011;37855;53.204;6.568;2022-10-13T04:33:34;31.88;;;19.50;;
51800;SDS011;37855;53.204;6.568;2022-10-13T04:36:04;33.63;;;20.20;;
51800;SDS011;37855;53.204;6.568;2022-10-13T04:38:31;34.45;;;20.25;;
51800;SDS011;37855;53.204;6.568;2022-10-13T04:40:56;35.40;;;21.27;;
51800;SDS011;37855;53.204;6.568;2022-10-13T04:43:22;35.55;;;20.33;;
51800;SDS011;37855;53.204;6.568;2022-10-13T04:45:49;32.53;;;20.63;;
51800;SDS011;37855;53.204;6.568;2022-10-13T04:48:15;33.92;;;21.30;;
51800;SDS011;37855;53.204;6.568;2022-10-13T04:50:43;34.58;;;22.20;;
51800;SDS011;37855;53.204;6.568;2022-10-13T04:53:12;34.20;;;21.60;;
51800;SDS011;37855;53.204;6.568;2022-10-13T04:55:38;35.88;;;22.88;;
51800;SDS011;37855;53.204;6.568;2022-10-13T04:58:03;38.67;;;22.65;;
51800;SDS011;37855;53.204;6.568;2022-10-13T05:00:29;33.55;;;22.67;;
51800;SDS011;37855;53.204;6.568;2022-10-13T05:02:58;35.28;;;22.17;;
51800;SDS011;37855;53.204;6.568;2022-10-13T05:05:23;36.17;;;22.58;;
51800;SDS011;37855;53.204;6.568;2022-10-13T05:07:49;35.47;;;22.40;;
51800;SDS011;37855;53.204;6.568;2022-10-13T05:10:14;35.20;;;23.33;;
51800;SDS011;37855;53.204;6.568;2022-10-13T05:12:40;33.47;;;22.38;;
51800;SDS011;37855;53.204;6.568;2022-10-13T05:15:07;35.15;;;22.40;;
51800;SDS011;37855;53.204;6.568;2022-10-13T05:17:36;37.85;;;23.15;;
51800;SDS011;37855;53.204;6.568;2022-10-13T05:20:01;40.95;;;22.98;;
51800;SDS011;37855;53.204;6.568;2022-10-13T05:22:27;34.60;;;23.02;;
51800;SDS011;37855;53.204;6.568;2022-10-13T05:24:53;37.10;;;23.25;;
51800;SDS011;37855;53.204;6.568;2022-10-13T05:27:20;37.97;;;23.25;;
51800;SDS011;37855;53.204;6.568;2022-10-13T05:29:47;34.95;;;22.67;;
51800;SDS011;37855;53.204;6.568;2022-10-13T05:32:12;36.88;;;23.23;;
51800;SDS011;37855;53.204;6.568;2022-10-13T05:34:38;38.85;;;23.75;;
51800;SDS011;37855;53.204;6.568;2022-10-13T05:37:04;44.45;;;24.48;;
51800;SDS011;37855;53.204;6.568;2022-10-13T05:39:32;35.53;;;23.75;;
51800;SDS011;37855;53.204;6.568;2022-10-13T05:41:58;35.80;;;23.73;;
51800;SDS011;37855;53.204;6.568;2022-10-13T05:44:23;40.47;;;25.42;;
51800;SDS011;37855;53.204;6.568;2022-10-13T05:46:50;37.75;;;24.38;;
51800;SDS011;37855;53.204;6.568;2022-10-13T05:49:16;36.55;;;25.10;;
51800;SDS011;37855;53.204;6.568;2022-10-13T05:51:42;35.78;;;23.80;;
51800;SDS011;37855;53.204;6.568;2022-10-13T05:56:52;43.42;;;25.95;;
51800;SDS011;37855;53.204;6.568;2022-10-13T05:59:34;45.63;;;25.33;;
51800;SDS011;37855;53.204;6.568;2022-10-13T06:02:04;40.30;;;24.95;;
51800;SDS011;37855;53.204;6.568;2022-10-13T06:04:36;41.35;;;24.23;;
51800;SDS011;37855;53.204;6.568;2022-10-13T06:07:04;36.22;;;24.88;;
51800;SDS011;37855;53.204;6.568;2022-10-13T06:09:31;37.03;;;25.33;;
51800;SDS011;37855;53.204;6.568;2022-10-13T06:11:59;37.85;;;24.48;;
51800;SDS011;37855;53.204;6.568;2022-10-13T06:14:24;38.17;;;25.80;;
51800;SDS011;37855;53.204;6.568;2022-10-13T06:16:50;36.75;;;25.38;;
51800;SDS011;37855;53.204;6.568;2022-10-13T06:19:17;42.08;;;27.05;;
51800;SDS011;37855;53.204;6.568;2022-10-13T06:21:42;44.38;;;25.52;;
51800;SDS011;37855;53.204;6.568;2022-10-13T06:24:08;38.65;;;26.33;;
51800;SDS011;37855;53.204;6.568;2022-10-13T06:26:34;44.92;;;28.05;;
51800;SDS011;37855;53.204;6.568;2022-10-13T06:29:04;44.50;;;27.98;;
51800;SDS011;37855;53.204;6.568;2022-10-13T06:31:29;39.83;;;26.30;;
51800;SDS011;37855;53.204;6.568;2022-10-13T06:34:00;40.33;;;26.05;;
51800;SDS011;37855;53.204;6.568;2022-10-13T06:36:25;44.38;;;27.33;;
51800;SDS011;37855;53.204;6.568;2022-10-13T06:38:55;38.95;;;27.23;;
51800;SDS011;37855;53.204;6.568;2022-10-13T06:41:24;47.70;;;28.13;;
51800;SDS011;37855;53.204;6.568;2022-10-13T06:43:49;46.17;;;29.58;;
51800;SDS011;37855;53.204;6.568;2022-10-13T06:46:26;47.20;;;29.60;;
51800;SDS011;37855;53.204;6.568;2022-10-13T06:48:51;43.13;;;28.35;;
51800;SDS011;37855;53.204;6.568;2022-10-13T06:51:17;37.60;;;26.33;;
51800;SDS011;37855;53.204;6.568;2022-10-13T06:53:43;43.22;;;27.55;;
51800;SDS011;37855;53.204;6.568;2022-10-13T06:56:10;42.88;;;26.73;;
51800;SDS011;37855;53.204;6.568;2022-10-13T06:58:36;44.92;;;27.40;;
51800;SDS011;37855;53.204;6.568;2022-10-13T07:01:02;41.05;;;27.48;;
51800;SDS011;37855;53.204;6.568;2022-10-13T07:03:28;39.67;;;26.67;;
51800;SDS011;37855;53.204;6.568;2022-10-13T07:05:58;39.45;;;27.10;;
51800;SDS011;37855;53.204;6.568;2022-10-13T07:08:28;38.33;;;26.30;;
51800;SDS011;37855;53.204;6.568;2022-10-13T07:10:54;39.10;;;26.15;;
51800;SDS011;37855;53.204;6.568;2022-10-13T07:13:19;41.72;;;25.48;;
51800;SDS011;37855;53.204;6.568;2022-10-13T07:15:46;36.55;;;24.60;;
51800;SDS011;37855;53.204;6.568;2022-10-13T07:18:12;39.15;;;24.02;;
51800;SDS011;37855;53.204;6.568;2022-10-13T07:20:39;36.15;;;26.00;;
51800;SDS011;37855;53.204;6.568;2022-10-13T07:23:04;37.35;;;25.35;;
51800;SDS011;37855;53.204;6.568;2022-10-13T07:25:31;42.83;;;26.42;;
51800;SDS011;37855;53.204;6.568;2022-10-13T07:28:03;40.65;;;26.27;;
51800;SDS011;37855;53.204;6.568;2022-10-13T07:30:29;38.53;;;26.00;;
51800;SDS011;37855;53.204;6.568;2022-10-13T07:32:54;37.55;;;24.65;;
51800;SDS011;37855;53.204;6.568;2022-10-13T07:35:20;36.05;;;25.70;;
51800;SDS011;37855;53.204;6.568;2022-10-13T07:37:46;34.58;;;25.40;;
51800;SDS011;37855;53.204;6.568;2022-10-13T07:40:12;36.83;;;25.05;;
51800;SDS011;37855;53.204;6.568;2022-10-13T07:42:38;37.10;;;25.00;;
51800;SDS011;37855;53.204;6.568;2022-10-13T07:45:03;39.05;;;25.20;;
51800;SDS011;37855;53.204;6.568;2022-10-13T07:47:29;40.95;;;25.60;;
51800;SDS011;37855;53.204;6.568;2022-10-13T07:49:55;39.03;;;24.35;;
51800;SDS011;37855;53.204;6.568;2022-10-13T07:52:21;39.38;;;25.25;;
51800;SDS011;37855;53.204;6.568;2022-10-13T07:54:46;36.28;;;24.73;;
51800;SDS011;37855;53.204;6.568;2022-10-13T07:57:12;37.40;;;25.02;;
51800;SDS011;37855;53.204;6.568;2022-10-13T07:59:39;36.25;;;25.10;;
51800;SDS011;37855;53.204;6.568;2022-10-13T08:02:05;38.20;;;24.08;;
51800;SDS011;37855;53.204;6.568;2022-10-13T08:04:31;35.63;;;24.50;;
51800;SDS011;37855;53.204;6.568;2022-10-13T08:06:59;39.08;;;23.98;;
51800;SDS011;37855;53.204;6.568;2022-10-13T08:09:29;37.65;;;23.83;;
51800;SDS011;37855;53.204;6.568;2022-10-13T08:11:54;36.10;;;24.90;;
51800;SDS011;37855;53.204;6.568;2022-10-13T08:14:20;34.80;;;25.00;;
51800;SDS011;37855;53.204;6.568;2022-10-13T08:16:46;35.78;;;24.45;;
51800;SDS011;37855;53.204;6.568;2022-10-13T08:19:14;33.80;;;23.70;;
51800;SDS011;37855;53.204;6.568;2022-10-13T08:21:41;40.63;;;24.85;;
51800;SDS011;37855;53.204;6.568;2022-10-13T08:24:08;36.40;;;23.58;;
51800;SDS011;37855;53.204;6.568;2022-10-13T08:26:37;33.97;;;23.25;;
51800;SDS011;37855;53.204;6.568;2022-10-13T08:29:03;35.33;;;23.58;;
51800;SDS011;37855;53.204;6.568;2022-10-13T08:31:29;37.38;;;25.15;;
51800;SDS011;37855;53.204;6.568;2022-10-13T08:33:54;34.15;;;22.75;;
51800;SDS011;37855;53.204;6.568;2022-10-13T08:36:20;38.40;;;25.38;;
51800;SDS011;37855;53.204;6.568;2022-10-13T08:38:46;41.05;;;26.08;;
51800;SDS011;37855;53.204;6.568;2022-10-13T08:41:16;38.17;;;24.65;;
51800;SDS011;37855;53.204;6.568;2022-10-13T08:43:50;34.03;;;24.95;;
51800;SDS011;37855;53.204;6.568;2022-10-13T08:46:19;41.50;;;26.67;;
51800;SDS011;37855;53.204;6.568;2022-10-13T08:48:55;36.88;;;25.10;;
51800;SDS011;37855;53.204;6.568;2022-10-13T08:51:23;35.03;;;25.30;;
51800;SDS011;37855;53.204;6.568;2022-10-13T08:53:52;36.78;;;25.58;;
51800;SDS011;37855;53.204;6.568;2022-10-13T08:56:21;38.20;;;26.73;;
51800;SDS011;37855;53.204;6.568;2022-10-13T08:58:51;38.42;;;26.48;;
51800;SDS011;37855;53.204;6.568;2022-10-13T09:03:47;39.67;;;27.02;;
51800;SDS011;37855;53.204;6.568;2022-10-13T09:06:37;37.97;;;27.05;;
51800;SDS011;37855;53.204;6.568;2022-10-13T09:09:07;43.20;;;27.27;;
51800;SDS011;37855;53.204;6.568;2022-10-13T09:11:40;43.97;;;28.63;;
51800;SDS011;37855;53.204;6.568;2022-10-13T09:14:08;43.85;;;29.42;;
51800;SDS011;37855;53.204;6.568;2022-10-13T09:16:41;41.85;;;29.10;;
51800;SDS011;37855;53.204;6.568;2022-10-13T09:19:13;42.72;;;28.40;;
51800;SDS011;37855;53.204;6.568;2022-10-13T09:21:58;39.90;;;27.45;;
51800;SDS011;37855;53.204;6.568;2022-10-13T09:35:46;44.80;;;29.33;;
51800;SDS011;37855;53.204;6.568;2022-10-13T09:38:22;51.80;;;30.48;;
51800;SDS011;37855;53.204;6.568;2022-10-13T09:46:03;41.47;;;29.35;;
51800;SDS011;37855;53.204;6.568;2022-10-13T09:48:56;45.85;;;30.40;;
51800;SDS011;37855;53.204;6.568;2022-10-13T09:54:02;45.70;;;31.80;;
51800;SDS011;37855;53.204;6.568;2022-10-13T09:56:37;42.05;;;29.85;;
51800;SDS011;37855;53.204;6.568;2022-10-13T10:01:41;50.53;;;32.60;;
51800;SDS011;37855;53.204;6.568;2022-10-13T10:04:15;45.22;;;31.02;;
51800;SDS011;37855;53.204;6.568;2022-10-13T10:09:33;47.65;;;30.02;;
51800;SDS011;37855;53.204;6.568;2022-10-13T10:12:03;45.63;;;30.55;;
51800;SDS011;37855;53.204;6.568;2022-10-13T10:14:35;52.00;;;31.95;;
51800;SDS011;37855;53.204;6.568;2022-10-13T10:20:02;47.55;;;31.50;;
51800;SDS011;37855;53.204;6.568;2022-10-13T10:22:42;42.55;;;30.05;;
51800;SDS011;37855;53.204;6.568;2022-10-13T10:25:15;42.20;;;30.58;;
51800;SDS011;37855;53.204;6.568;2022-10-13T10:27:44;25.58;;;16.60;;
51800;SDS011;37855;53.204;6.568;2022-10-13T10:30:14;18.25;;;11.98;;
51800;SDS011;37855;53.204;6.568;2022-10-13T10:33:02;17.52;;;11.60;;
51800;SDS011;37855;53.204;6.568;2022-10-13T10:35:43;36.28;;;25.17;;
51800;SDS011;37855;53.204;6.568;2022-10-13T10:46:30;33.38;;;25.52;;
51800;SDS011;37855;53.204;6.568;2022-10-13T10:51:49;36.63;;;26.38;;
51800;SDS011;37855;53.204;6.568;2022-10-13T10:54:46;36.00;;;26.33;;
51800;SDS011;37855;53.204;6.568;2022-10-13T10:57:20;35.95;;;24.88;;
51800;SDS011;37855;53.204;6.568;2022-10-13T11:00:15;34.80;;;26.15;;
51800;SDS011;37855;53.204;6.568;2022-10-13T11:02:46;36.40;;;25.98;;
51800;SDS011;37855;53.204;6.568;2022-10-13T11:05:16;35.90;;;25.20;;
51800;SDS011;37855;53.204;6.568;2022-10-13T11:15:22;36.17;;;27.45;;
51800;SDS011;37855;53.204;6.568;2022-10-13T11:17:48;33.22;;;25.27;;
51800;SDS011;37855;53.204;6.568;2022-10-13T11:25:42;29.90;;;24.35;;
51800;SDS011;37855;53.204;6.568;2022-10-13T11:30:48;30.80;;;25.08;;
51800;SDS011;37855;53.204;6.568;2022-10-13T11:41:57;33.88;;;25.52;;
51800;SDS011;37855;53.204;6.568;2022-10-13T11:47:17;31.40;;;25.55;;
51800;SDS011;37855;53.204;6.568;2022-10-13T11:55:17;33.70;;;25.58;;
51800;SDS011;37855;53.204;6.568;2022-10-13T11:58:06;32.15;;;24.58;;
51800;SDS011;37855;53.204;6.568;2022-10-13T12:00:56;29.75;;;23.20;;
51800;SDS011;37855;53.204;6.568;2022-10-13T12:03:33;34.22;;;24.25;;
51800;SDS011;37855;53.204;6.568;2022-10-13T12:06:04;32.55;;;24.42;;
51800;SDS011;37855;53.204;6.568;2022-10-13T12:08:57;32.78;;;24.27;;
51800;SDS011;37855;53.204;6.568;2022-10-13T12:11:31;31.67;;;25.17;;
51800;SDS011;37855;53.204;6.568;2022-10-13T12:16:27;32.42;;;24.05;;
51800;SDS011;37855;53.204;6.568;2022-10-13T12:19:05;32.22;;;23.23;;
51800;SDS011;37855;53.204;6.568;2022-10-13T12:21:52;29.00;;;23.08;;
51800;SDS011;37855;53.204;6.568;2022-10-13T12:24:23;30.77;;;23.45;;
51800;SDS011;37855;53.204;6.568;2022-10-13T12:26:51;27.98;;;23.48;;
51800;SDS011;37855;53.204;6.568;2022-10-13T12:29:17;28.83;;;22.92;;
51800;SDS011;37855;53.204;6.568;2022-10-13T12:31:47;29.17;;;23.02;;
51800;SDS011;37855;53.204;6.568;2022-10-13T12:36:58;27.48;;;22.13;;
51800;SDS011;37855;53.204;6.568;2022-10-13T12:39:26;31.38;;;23.00;;
51800;SDS011;37855;53.204;6.568;2022-10-13T12:41:53;30.85;;;23.17;;
51800;SDS011;37855;53.204;6.568;2022-10-13T12:44:20;28.52;;;22.92;;
51800;SDS011;37855;53.204;6.568;2022-10-13T12:46:53;30.98;;;23.58;;
51800;SDS011;37855;53.204;6.568;2022-10-13T12:54:34;30.88;;;22.95;;
51800;SDS011;37855;53.204;6.568;2022-10-13T12:57:11;33.55;;;22.60;;
51800;SDS011;37855;53.204;6.568;2022-10-13T12:59:45;27.83;;;22.13;;
51800;SDS011;37855;53.204;6.568;2022-10-13T13:04:45;29.38;;;21.85;;
51800;SDS011;37855;53.204;6.568;2022-10-13T13:10:16;26.20;;;21.80;;
51800;SDS011;37855;53.204;6.568;2022-10-13T13:12:43;27.20;;;21.75;;
51800;SDS011;37855;53.204;6.568;2022-10-13T13:17:49;29.60;;;22.13;;
51800;SDS011;37855;53.204;6.568;2022-10-13T13:22:54;30.63;;;22.20;;
51800;SDS011;37855;53.204;6.568;2022-10-13T13:25:21;29.38;;;22.13;;
51800;SDS011;37855;53.204;6.568;2022-10-13T13:27:47;32.00;;;23.98;;
51800;SDS011;37855;53.204;6.568;2022-10-13T13:30:14;28.10;;;22.98;;
51800;SDS011;37855;53.204;6.568;2022-10-13T13:32:45;30.67;;;22.70;;
51800;SDS011;37855;53.204;6.568;2022-10-13T13:35:12;31.27;;;23.10;;
51800;SDS011;37855;53.204;6.568;2022-10-13T13:37:44;30.80;;;24.08;;
51800;SDS011;37855;53.204;6.568;2022-10-13T13:40:14;28.73;;;23.33;;
51800;SDS011;37855;53.204;6.568;2022-10-13T13:42:47;32.05;;;24.10;;
51800;SDS011;37855;53.204;6.568;2022-10-13T13:45:14;33.80;;;25.55;;
51800;SDS011;37855;53.204;6.568;2022-10-13T13:47:41;32.35;;;24.95;;
51800;SDS011;37855;53.204;6.568;2022-10-13T13:52:44;29.77;;;22.80;;
51800;SDS011;37855;53.204;6.568;2022-10-13T13:55:10;31.25;;;23.50;;
51800;SDS011;37855;53.204;6.568;2022-10-13T13:57:36;34.45;;;23.88;;
51800;SDS011;37855;53.204;6.568;2022-10-13T14:00:02;33.45;;;24.23;;
51800;SDS011;37855;53.204;6.568;2022-10-13T14:02:28;31.67;;;23.85;;
51800;SDS011;37855;53.204;6.568;2022-10-13T14:04:55;31.75;;;23.45;;
51800;SDS011;37855;53.204;6.568;2022-10-13T14:07:21;28.83;;;23.52;;
51800;SDS011;37855;53.204;6.568;2022-10-13T14:09:47;28.50;;;22.48;;
51800;SDS011;37855;53.204;6.568;2022-10-13T14:12:12;26.92;;;22.20;;
51800;SDS011;37855;53.204;6.568;2022-10-13T14:14:41;29.65;;;22.48;;
51800;SDS011;37855;53.204;6.568;2022-10-13T14:17:07;27.00;;;21.02;;
51800;SDS011;37855;53.204;6.568;2022-10-13T14:19:32;28.70;;;22.15;;
51800;SDS011;37855;53.204;6.568;2022-10-13T14:22:01;27.98;;;22.25;;
51800;SDS011;37855;53.204;6.568;2022-10-13T14:24:28;26.38;;;21.63;;
51800;SDS011;37855;53.204;6.568;2022-10-13T14:26:54;28.38;;;21.77;;
51800;SDS011;37855;53.204;6.568;2022-10-13T14:29:20;29.75;;;21.38;;
51800;SDS011;37855;53.204;6.568;2022-10-13T14:31:46;27.98;;;21.85;;
51800;SDS011;37855;53.204;6.568;2022-10-13T14:34:11;28.75;;;21.85;;
51800;SDS011;37855;53.204;6.568;2022-10-13T14:36:37;28.00;;;21.55;;
51800;SDS011;37855;53.204;6.568;2022-10-13T14:39:03;27.50;;;21.05;;
51800;SDS011;37855;53.204;6.568;2022-10-13T14:41:28;27.80;;;21.58;;
51800;SDS011;37855;53.204;6.568;2022-10-13T14:43:54;31.23;;;22.58;;
51800;SDS011;37855;53.204;6.568;2022-10-13T14:46:21;28.05;;;20.90;;
51800;SDS011;37855;53.204;6.568;2022-10-13T14:48:48;26.98;;;21.17;;
51800;SDS011;37855;53.204;6.568;2022-10-13T14:51:13;29.92;;;21.65;;
51800;SDS011;37855;53.204;6.568;2022-10-13T14:53:40;27.05;;;20.70;;
51800;SDS011;37855;53.204;6.568;2022-10-13T14:56:14;26.63;;;19.77;;
51800;SDS011;37855;53.204;6.568;2022-10-13T14:58:47;25.15;;;19.63;;
51800;SDS011;37855;53.204;6.568;2022-10-13T15:01:14;22.95;;;19.13;;
51800;SDS011;37855;53.204;6.568;2022-10-13T15:03:41;26.55;;;20.25;;
51800;SDS011;37855;53.204;6.568;2022-10-13T15:06:09;29.38;;;21.00;;
51800;SDS011;37855;53.204;6.568;2022-10-13T15:08:38;28.17;;;20.60;;
51800;SDS011;37855;53.204;6.568;2022-10-13T15:11:04;26.15;;;20.65;;
51800;SDS011;37855;53.204;6.568;2022-10-13T15:13:30;25.92;;;20.48;;
51800;SDS011;37855;53.204;6.568;2022-10-13T15:15:56;28.45;;;19.45;;
51800;SDS011;37855;53.204;6.568;2022-10-13T15:18:28;28.05;;;20.75;;
51800;SDS011;37855;53.204;6.568;2022-10-13T15:20:55;29.67;;;20.60;;
51800;SDS011;37855;53.204;6.568;2022-10-13T15:23:21;31.30;;;21.33;;
51800;SDS011;37855;53.204;6.568;2022-10-13T15:28:17;30.88;;;20.73;;
51800;SDS011;37855;53.204;6.568;2022-10-13T15:30:43;29.98;;;21.33;;
51800;SDS011;37855;53.204;6.568;2022-10-13T15:33:09;29.60;;;21.63;;
51800;SDS011;37855;53.204;6.568;2022-10-13T15:35:34;32.72;;;22.73;;
51800;SDS011;37855;53.204;6.568;2022-10-13T15:38:00;30.30;;;23.00;;
51800;SDS011;37855;53.204;6.568;2022-10-13T15:40:26;27.63;;;22.38;;
51800;SDS011;37855;53.204;6.568;2022-10-13T15:42:51;30.48;;;23.40;;
51800;SDS011;37855;53.204;6.568;2022-10-13T15:45:20;31.75;;;23.10;;
51800;SDS011;37855;53.204;6.568;2022-10-13T15:47:45;30.25;;;22.85;;
51800;SDS011;37855;53.204;6.568;2022-10-13T15:50:11;28.77;;;21.95;;
51800;SDS011;37855;53.204;6.568;2022-10-13T15:52:40;28.92;;;21.85;;
51800;SDS011;37855;53.204;6.568;2022-10-13T15:55:07;31.30;;;21.48;;
51800;SDS011;37855;53.204;6.568;2022-10-13T15:57:33;29.83;;;21.88;;
51800;SDS011;37855;53.204;6.568;2022-10-13T15:59:59;28.15;;;21.20;;
51800;SDS011;37855;53.204;6.568;2022-10-13T16:02:25;29.25;;;22.08;;
51800;SDS011;37855;53.204;6.568;2022-10-13T16:04:50;27.52;;;20.95;;
51800;SDS011;37855;53.204;6.568;2022-10-13T16:07:17;29.10;;;22.73;;
51800;SDS011;37855;53.204;6.568;2022-10-13T16:09:43;27.30;;;21.70;;
51800;SDS011;37855;53.204;6.568;2022-10-13T16:12:10;31.77;;;21.15;;
51800;SDS011;37855;53.204;6.568;2022-10-13T16:14:36;32.03;;;22.65;;
51800;SDS011;37855;53.204;6.568;2022-10-13T16:17:01;27.77;;;21.67;;
51800;SDS011;37855;53.204;6.568;2022-10-13T16:19:27;28.50;;;21.52;;
51800;SDS011;37855;53.204;6.568;2022-10-13T16:21:53;31.77;;;22.52;;
51800;SDS011;37855;53.204;6.568;2022-10-13T16:24:19;29.83;;;22.17;;
51800;SDS011;37855;53.204;6.568;2022-10-13T16:26:44;33.40;;;22.77;;
51800;SDS011;37855;53.204;6.568;2022-10-13T16:29:10;29.77;;;22.48;;
51800;SDS011;37855;53.204;6.568;2022-10-13T16:31:36;28.58;;;21.85;;
51800;SDS011;37855;53.204;6.568;2022-10-13T16:34:01;33.53;;;23.65;;
51800;SDS011;37855;53.204;6.568;2022-10-13T16:36:27;30.38;;;22.38;;
51800;SDS011;37855;53.204;6.568;2022-10-13T16:38:52;32.20;;;23.85;;
51800;SDS011;37855;53.204;6.568;2022-10-13T16:41:19;31.88;;;23.80;;
51800;SDS011;37855;53.204;6.568;2022-10-13T16:43:45;32.47;;;23.27;;